Terminal Aerodrome Forecast
Issued by NWS Blacksburg, VA

Home | Current Version | Previous Version | Text Only | Print | Product List | Glossary On
Versions: 1 2 3 4 5 6 7 8 9 10 11 12 13 14 15 16 17 18 19 20 21 22 23 24 25 26 27 28 29 30 31 32 33 34
000
FTUS41 KRNK 201720
TAFLYH
TAF
KLYH 201720Z 2018/2118 16004KT P6SM -DZ OVC025
     FM202000 VRB03KT P6SM -DZ BKN008 OVC015
     FM210000 VRB03KT 1SM -DZ BR OVC003
     FM210600 00000KT 1/2SM -DZ FG OVC003
     FM211200 00000KT P6SM BKN003=

USA.gov is the U.S. government's official web portal to all federal, state and local government web resources and services.